sensor_id;sensor_type;location;lat;lon;timestamp;P1;durP1;ratioP1;P2;durP2;ratioP2
73954;SDS011;62306;52.516;13.290;2023-04-06T00:03:23;9.90;;;6.40;;
73954;SDS011;62306;52.516;13.290;2023-04-06T00:05:50;10.50;;;6.50;;
73954;SDS011;62306;52.516;13.290;2023-04-06T00:08:17;11.52;;;6.15;;
73954;SDS011;62306;52.516;13.290;2023-04-06T00:10:46;13.90;;;6.78;;
73954;SDS011;62306;52.516;13.290;2023-04-06T00:13:13;10.95;;;6.20;;
73954;SDS011;62306;52.516;13.290;2023-04-06T00:15:40;9.15;;;5.88;;
73954;SDS011;62306;52.516;13.290;2023-04-06T00:18:08;8.98;;;6.15;;
73954;SDS011;62306;52.516;13.290;2023-04-06T00:20:37;13.38;;;6.25;;
73954;SDS011;62306;52.516;13.290;2023-04-06T00:23:04;19.73;;;6.75;;
73954;SDS011;62306;52.516;13.290;2023-04-06T00:25:31;28.77;;;14.70;;
73954;SDS011;62306;52.516;13.290;2023-04-06T00:27:58;12.30;;;7.07;;
73954;SDS011;62306;52.516;13.290;2023-04-06T00:30:25;13.18;;;6.72;;
73954;SDS011;62306;52.516;13.290;2023-04-06T00:32:52;11.98;;;6.22;;
73954;SDS011;62306;52.516;13.290;2023-04-06T00:35:19;14.35;;;6.15;;
73954;SDS011;62306;52.516;13.290;2023-04-06T00:37:48;12.02;;;6.45;;
73954;SDS011;62306;52.516;13.290;2023-04-06T00:40:15;13.05;;;6.40;;
73954;SDS011;62306;52.516;13.290;2023-04-06T00:42:43;16.05;;;7.18;;
73954;SDS011;62306;52.516;13.290;2023-04-06T00:45:10;9.95;;;6.68;;
73954;SDS011;62306;52.516;13.290;2023-04-06T00:47:37;12.23;;;6.93;;
73954;SDS011;62306;52.516;13.290;2023-04-06T00:50:05;9.20;;;6.68;;
73954;SDS011;62306;52.516;13.290;2023-04-06T00:52:33;10.30;;;6.70;;
73954;SDS011;62306;52.516;13.290;2023-04-06T00:55:02;9.95;;;6.13;;
73954;SDS011;62306;52.516;13.290;2023-04-06T00:57:30;12.02;;;6.30;;
73954;SDS011;62306;52.516;13.290;2023-04-06T00:59:58;12.20;;;6.85;;
73954;SDS011;62306;52.516;13.290;2023-04-06T01:02:25;10.02;;;6.32;;
73954;SDS011;62306;52.516;13.290;2023-04-06T01:04:52;13.13;;;6.20;;
73954;SDS011;62306;52.516;13.290;2023-04-06T01:07:20;12.80;;;6.88;;
73954;SDS011;62306;52.516;13.290;2023-04-06T01:09:47;12.93;;;6.05;;
73954;SDS011;62306;52.516;13.290;2023-04-06T01:12:16;11.05;;;6.32;;
73954;SDS011;62306;52.516;13.290;2023-04-06T01:14:43;10.88;;;6.65;;
73954;SDS011;62306;52.516;13.290;2023-04-06T01:17:10;9.68;;;5.80;;
73954;SDS011;62306;52.516;13.290;2023-04-06T01:19:38;10.82;;;6.50;;
73954;SDS011;62306;52.516;13.290;2023-04-06T01:22:05;9.65;;;6.53;;
73954;SDS011;62306;52.516;13.290;2023-04-06T01:24:34;10.32;;;5.95;;
73954;SDS011;62306;52.516;13.290;2023-04-06T01:27:01;9.02;;;6.38;;
73954;SDS011;62306;52.516;13.290;2023-04-06T01:29:28;11.95;;;6.60;;
73954;SDS011;62306;52.516;13.290;2023-04-06T01:31:56;9.57;;;6.22;;
73954;SDS011;62306;52.516;13.290;2023-04-06T01:34:23;13.15;;;6.68;;
73954;SDS011;62306;52.516;13.290;2023-04-06T01:36:50;8.98;;;6.25;;
73954;SDS011;62306;52.516;13.290;2023-04-06T01:39:17;10.07;;;6.35;;
73954;SDS011;62306;52.516;13.290;2023-04-06T01:41:46;13.90;;;6.90;;
73954;SDS011;62306;52.516;13.290;2023-04-06T01:44:16;9.88;;;6.15;;
73954;SDS011;62306;52.516;13.290;2023-04-06T01:46:44;9.85;;;6.47;;
73954;SDS011;62306;52.516;13.290;2023-04-06T01:49:11;12.02;;;5.97;;
73954;SDS011;62306;52.516;13.290;2023-04-06T01:51:38;11.93;;;6.18;;
73954;SDS011;62306;52.516;13.290;2023-04-06T01:54:05;8.93;;;6.50;;
73954;SDS011;62306;52.516;13.290;2023-04-06T01:56:32;11.52;;;6.00;;
73954;SDS011;62306;52.516;13.290;2023-04-06T01:59:01;11.23;;;6.50;;
73954;SDS011;62306;52.516;13.290;2023-04-06T02:01:28;12.95;;;6.10;;
73954;SDS011;62306;52.516;13.290;2023-04-06T02:03:56;7.90;;;6.10;;
73954;SDS011;62306;52.516;13.290;2023-04-06T02:06:23;10.07;;;6.25;;
73954;SDS011;62306;52.516;13.290;2023-04-06T02:08:51;9.18;;;5.85;;
73954;SDS011;62306;52.516;13.290;2023-04-06T02:11:18;10.63;;;5.63;;
73954;SDS011;62306;52.516;13.290;2023-04-06T02:13:46;13.15;;;6.75;;
73954;SDS011;62306;52.516;13.290;2023-04-06T02:16:14;9.23;;;6.10;;
73954;SDS011;62306;52.516;13.290;2023-04-06T02:18:41;15.00;;;6.35;;
73954;SDS011;62306;52.516;13.290;2023-04-06T02:21:08;13.20;;;6.70;;
73954;SDS011;62306;52.516;13.290;2023-04-06T02:23:36;9.95;;;6.10;;
73954;SDS011;62306;52.516;13.290;2023-04-06T02:26:03;12.90;;;6.38;;
73954;SDS011;62306;52.516;13.290;2023-04-06T02:28:30;11.48;;;6.30;;
73954;SDS011;62306;52.516;13.290;2023-04-06T02:30:57;11.40;;;6.18;;
73954;SDS011;62306;52.516;13.290;2023-04-06T02:33:26;11.35;;;6.55;;
73954;SDS011;62306;52.516;13.290;2023-04-06T02:35:53;11.88;;;6.30;;
73954;SDS011;62306;52.516;13.290;2023-04-06T02:38:20;15.20;;;6.55;;
73954;SDS011;62306;52.516;13.290;2023-04-06T02:40:47;11.73;;;6.22;;
73954;SDS011;62306;52.516;13.290;2023-04-06T02:43:14;11.93;;;6.40;;
73954;SDS011;62306;52.516;13.290;2023-04-06T02:45:42;12.75;;;6.80;;
73954;SDS011;62306;52.516;13.290;2023-04-06T02:48:09;14.70;;;6.63;;
73954;SDS011;62306;52.516;13.290;2023-04-06T02:50:37;11.82;;;6.72;;
73954;SDS011;62306;52.516;13.290;2023-04-06T02:53:04;11.80;;;6.75;;
73954;SDS011;62306;52.516;13.290;2023-04-06T02:55:32;13.75;;;6.97;;
73954;SDS011;62306;52.516;13.290;2023-04-06T02:57:59;9.73;;;6.05;;
73954;SDS011;62306;52.516;13.290;2023-04-06T03:00:26;13.90;;;6.93;;
73954;SDS011;62306;52.516;13.290;2023-04-06T03:02:53;15.45;;;7.40;;
73954;SDS011;62306;52.516;13.290;2023-04-06T03:05:20;15.98;;;7.10;;
73954;SDS011;62306;52.516;13.290;2023-04-06T03:07:49;10.32;;;6.53;;
73954;SDS011;62306;52.516;13.290;2023-04-06T03:10:16;11.57;;;7.28;;
73954;SDS011;62306;52.516;13.290;2023-04-06T03:12:43;13.20;;;7.20;;
73954;SDS011;62306;52.516;13.290;2023-04-06T03:15:11;16.00;;;7.10;;
73954;SDS011;62306;52.516;13.290;2023-04-06T03:17:38;11.90;;;7.68;;
73954;SDS011;62306;52.516;13.290;2023-04-06T03:20:06;11.23;;;6.88;;
73954;SDS011;62306;52.516;13.290;2023-04-06T03:22:33;11.93;;;6.95;;
73954;SDS011;62306;52.516;13.290;2023-04-06T03:25:02;12.75;;;6.85;;
73954;SDS011;62306;52.516;13.290;2023-04-06T03:27:30;14.23;;;7.50;;
73954;SDS011;62306;52.516;13.290;2023-04-06T03:29:57;12.27;;;7.18;;
73954;SDS011;62306;52.516;13.290;2023-04-06T03:32:25;13.88;;;7.28;;
73954;SDS011;62306;52.516;13.290;2023-04-06T03:34:52;14.82;;;8.35;;
73954;SDS011;62306;52.516;13.290;2023-04-06T03:37:19;13.30;;;7.53;;
73954;SDS011;62306;52.516;13.290;2023-04-06T03:39:46;16.88;;;8.05;;
73954;SDS011;62306;52.516;13.290;2023-04-06T03:42:14;12.93;;;7.28;;
73954;SDS011;62306;52.516;13.290;2023-04-06T03:44:41;11.15;;;7.43;;
73954;SDS011;62306;52.516;13.290;2023-04-06T03:47:09;12.75;;;8.13;;
73954;SDS011;62306;52.516;13.290;2023-04-06T03:49:36;13.10;;;6.88;;
73954;SDS011;62306;52.516;13.290;2023-04-06T03:52:03;11.25;;;6.75;;
73954;SDS011;62306;52.516;13.290;2023-04-06T03:54:30;15.05;;;7.25;;
73954;SDS011;62306;52.516;13.290;2023-04-06T03:56:57;10.77;;;7.00;;
73954;SDS011;62306;52.516;13.290;2023-04-06T03:59:27;12.35;;;7.28;;
73954;SDS011;62306;52.516;13.290;2023-04-06T04:01:54;12.23;;;7.15;;
73954;SDS011;62306;52.516;13.290;2023-04-06T04:04:21;9.95;;;7.22;;
73954;SDS011;62306;52.516;13.290;2023-04-06T04:06:48;17.20;;;7.43;;
73954;SDS011;62306;52.516;13.290;2023-04-06T04:09:15;11.35;;;6.63;;
73954;SDS011;62306;52.516;13.290;2023-04-06T04:11:42;13.15;;;7.10;;
73954;SDS011;62306;52.516;13.290;2023-04-06T04:14:10;12.65;;;7.10;;
73954;SDS011;62306;52.516;13.290;2023-04-06T04:16:38;11.75;;;6.43;;
73954;SDS011;62306;52.516;13.290;2023-04-06T04:19:06;13.23;;;6.43;;
73954;SDS011;62306;52.516;13.290;2023-04-06T04:21:34;11.50;;;7.25;;
73954;SDS011;62306;52.516;13.290;2023-04-06T04:24:08;12.80;;;6.93;;
73954;SDS011;62306;52.516;13.290;2023-04-06T04:26:35;12.68;;;7.07;;
73954;SDS011;62306;52.516;13.290;2023-04-06T04:29:03;12.82;;;6.97;;
73954;SDS011;62306;52.516;13.290;2023-04-06T04:31:31;14.02;;;6.50;;
73954;SDS011;62306;52.516;13.290;2023-04-06T04:33:59;11.57;;;7.15;;
73954;SDS011;62306;52.516;13.290;2023-04-06T04:36:26;13.98;;;7.15;;
73954;SDS011;62306;52.516;13.290;2023-04-06T04:38:54;10.57;;;6.95;;
73954;SDS011;62306;52.516;13.290;2023-04-06T04:41:21;15.23;;;7.07;;
73954;SDS011;62306;52.516;13.290;2023-04-06T04:43:48;13.13;;;7.55;;
73954;SDS011;62306;52.516;13.290;2023-04-06T04:46:15;16.15;;;7.55;;
73954;SDS011;62306;52.516;13.290;2023-04-06T04:48:42;11.60;;;7.55;;
73954;SDS011;62306;52.516;13.290;2023-04-06T04:51:11;16.40;;;8.07;;
73954;SDS011;62306;52.516;13.290;2023-04-06T04:53:38;14.80;;;8.05;;
73954;SDS011;62306;52.516;13.290;2023-04-06T04:56:05;16.77;;;8.27;;
73954;SDS011;62306;52.516;13.290;2023-04-06T04:58:32;13.50;;;8.30;;
73954;SDS011;62306;52.516;13.290;2023-04-06T05:01:00;16.45;;;9.75;;
73954;SDS011;62306;52.516;13.290;2023-04-06T05:03:27;15.45;;;9.40;;
73954;SDS011;62306;52.516;13.290;2023-04-06T05:05:55;17.42;;;9.85;;
73954;SDS011;62306;52.516;13.290;2023-04-06T05:08:23;15.07;;;9.80;;
73954;SDS011;62306;52.516;13.290;2023-04-06T05:10:50;21.33;;;9.60;;
73954;SDS011;62306;52.516;13.290;2023-04-06T05:13:18;18.48;;;10.45;;
73954;SDS011;62306;52.516;13.290;2023-04-06T05:15:45;16.98;;;9.77;;
73954;SDS011;62306;52.516;13.290;2023-04-06T05:18:12;17.27;;;10.13;;
73954;SDS011;62306;52.516;13.290;2023-04-06T05:20:39;18.02;;;10.45;;
73954;SDS011;62306;52.516;13.290;2023-04-06T05:23:07;18.52;;;10.18;;
73954;SDS011;62306;52.516;13.290;2023-04-06T05:25:35;20.40;;;11.13;;
73954;SDS011;62306;52.516;13.290;2023-04-06T05:28:02;20.15;;;11.13;;
73954;SDS011;62306;52.516;13.290;2023-04-06T05:30:29;14.57;;;10.38;;
73954;SDS011;62306;52.516;13.290;2023-04-06T05:32:56;19.73;;;10.60;;
73954;SDS011;62306;52.516;13.290;2023-04-06T05:35:24;14.88;;;10.27;;
73954;SDS011;62306;52.516;13.290;2023-04-06T05:37:51;19.48;;;10.52;;
73954;SDS011;62306;52.516;13.290;2023-04-06T05:40:18;18.42;;;10.93;;
73954;SDS011;62306;52.516;13.290;2023-04-06T05:42:47;17.00;;;10.35;;
73954;SDS011;62306;52.516;13.290;2023-04-06T05:45:14;18.13;;;10.80;;
73954;SDS011;62306;52.516;13.290;2023-04-06T05:47:43;19.15;;;10.63;;
73954;SDS011;62306;52.516;13.290;2023-04-06T05:50:11;16.80;;;10.07;;
73954;SDS011;62306;52.516;13.290;2023-04-06T05:52:39;16.88;;;9.80;;
73954;SDS011;62306;52.516;13.290;2023-04-06T05:55:08;16.40;;;9.95;;
73954;SDS011;62306;52.516;13.290;2023-04-06T05:57:36;18.65;;;9.85;;
73954;SDS011;62306;52.516;13.290;2023-04-06T06:00:05;21.08;;;10.60;;
73954;SDS011;62306;52.516;13.290;2023-04-06T06:02:34;16.90;;;10.23;;
73954;SDS011;62306;52.516;13.290;2023-04-06T06:05:02;15.83;;;9.80;;
73954;SDS011;62306;52.516;13.290;2023-04-06T06:07:30;16.67;;;10.55;;
73954;SDS011;62306;52.516;13.290;2023-04-06T06:09:57;16.13;;;11.15;;
73954;SDS011;62306;52.516;13.290;2023-04-06T06:12:25;17.90;;;10.43;;
73954;SDS011;62306;52.516;13.290;2023-04-06T06:14:52;24.45;;;10.90;;
73954;SDS011;62306;52.516;13.290;2023-04-06T06:17:20;18.80;;;11.07;;
73954;SDS011;62306;52.516;13.290;2023-04-06T06:19:47;19.33;;;10.75;;
73954;SDS011;62306;52.516;13.290;2023-04-06T06:22:15;21.27;;;11.60;;
73954;SDS011;62306;52.516;13.290;2023-04-06T06:24:42;18.83;;;11.10;;
73954;SDS011;62306;52.516;13.290;2023-04-06T06:27:09;16.25;;;10.98;;
73954;SDS011;62306;52.516;13.290;2023-04-06T06:29:36;20.52;;;11.23;;
73954;SDS011;62306;52.516;13.290;2023-04-06T06:32:03;16.48;;;11.25;;
73954;SDS011;62306;52.516;13.290;2023-04-06T06:34:32;18.67;;;11.65;;
73954;SDS011;62306;52.516;13.290;2023-04-06T06:37:00;20.42;;;11.57;;
73954;SDS011;62306;52.516;13.290;2023-04-06T06:39:28;21.42;;;10.95;;
73954;SDS011;62306;52.516;13.290;2023-04-06T06:41:55;21.15;;;11.60;;
73954;SDS011;62306;52.516;13.290;2023-04-06T06:44:22;19.08;;;10.80;;
73954;SDS011;62306;52.516;13.290;2023-04-06T06:46:50;18.13;;;10.95;;
73954;SDS011;62306;52.516;13.290;2023-04-06T06:49:17;17.50;;;10.65;;
73954;SDS011;62306;52.516;13.290;2023-04-06T06:51:46;18.05;;;9.80;;
73954;SDS011;62306;52.516;13.290;2023-04-06T06:54:13;22.02;;;9.95;;
73954;SDS011;62306;52.516;13.290;2023-04-06T06:56:40;14.00;;;9.65;;
73954;SDS011;62306;52.516;13.290;2023-04-06T06:59:07;19.45;;;8.98;;
73954;SDS011;62306;52.516;13.290;2023-04-06T07:01:35;15.65;;;9.68;;
73954;SDS011;62306;52.516;13.290;2023-04-06T07:04:03;16.58;;;9.15;;
73954;SDS011;62306;52.516;13.290;2023-04-06T07:06:31;17.80;;;10.23;;
73954;SDS011;62306;52.516;13.290;2023-04-06T07:08:59;15.77;;;9.60;;
73954;SDS011;62306;52.516;13.290;2023-04-06T07:11:28;19.05;;;9.50;;
73954;SDS011;62306;52.516;13.290;2023-04-06T07:13:55;16.48;;;8.32;;
73954;SDS011;62306;52.516;13.290;2023-04-06T07:16:22;18.67;;;9.82;;
73954;SDS011;62306;52.516;13.290;2023-04-06T07:18:49;16.13;;;9.73;;
73954;SDS011;62306;52.516;13.290;2023-04-06T07:21:16;11.45;;;8.55;;
73954;SDS011;62306;52.516;13.290;2023-04-06T07:23:44;13.07;;;8.60;;
73954;SDS011;62306;52.516;13.290;2023-04-06T07:26:14;11.05;;;7.22;;
73954;SDS011;62306;52.516;13.290;2023-04-06T07:28:41;16.58;;;7.75;;
73954;SDS011;62306;52.516;13.290;2023-04-06T07:31:08;19.05;;;8.05;;
73954;SDS011;62306;52.516;13.290;2023-04-06T07:33:35;14.10;;;6.78;;
73954;SDS011;62306;52.516;13.290;2023-04-06T07:36:03;10.00;;;6.75;;
73954;SDS011;62306;52.516;13.290;2023-04-06T07:38:30;14.85;;;6.30;;
73954;SDS011;62306;52.516;13.290;2023-04-06T07:40:57;9.80;;;5.68;;
73954;SDS011;62306;52.516;13.290;2023-04-06T07:43:26;9.05;;;5.30;;
73954;SDS011;62306;52.516;13.290;2023-04-06T07:45:54;7.90;;;5.15;;
73954;SDS011;62306;52.516;13.290;2023-04-06T07:48:22;13.85;;;5.88;;
73954;SDS011;62306;52.516;13.290;2023-04-06T07:50:49;13.98;;;5.50;;
73954;SDS011;62306;52.516;13.290;2023-04-06T07:53:16;9.32;;;5.78;;
73954;SDS011;62306;52.516;13.290;2023-04-06T07:55:43;11.70;;;5.63;;
73954;SDS011;62306;52.516;13.290;2023-04-06T07:58:10;11.45;;;5.63;;
73954;SDS011;62306;52.516;13.290;2023-04-06T08:00:39;9.20;;;5.78;;
73954;SDS011;62306;52.516;13.290;2023-04-06T08:03:06;13.02;;;5.55;;
73954;SDS011;62306;52.516;13.290;2023-04-06T08:05:33;11.93;;;7.10;;
73954;SDS011;62306;52.516;13.290;2023-04-06T08:08:00;12.32;;;6.40;;
73954;SDS011;62306;52.516;13.290;2023-04-06T08:10:28;9.50;;;5.50;;
73954;SDS011;62306;52.516;13.290;2023-04-06T08:12:55;8.10;;;4.50;;
73954;SDS011;62306;52.516;13.290;2023-04-06T08:15:22;5.47;;;4.40;;
73954;SDS011;62306;52.516;13.290;2023-04-06T08:17:50;10.70;;;5.53;;
73954;SDS011;62306;52.516;13.290;2023-04-06T08:20:17;16.55;;;6.35;;
73954;SDS011;62306;52.516;13.290;2023-04-06T08:22:45;8.20;;;4.82;;
73954;SDS011;62306;52.516;13.290;2023-04-06T08:25:12;6.75;;;4.40;;
73954;SDS011;62306;52.516;13.290;2023-04-06T08:27:39;7.57;;;4.50;;
73954;SDS011;62306;52.516;13.290;2023-04-06T08:30:06;10.68;;;5.55;;
73954;SDS011;62306;52.516;13.290;2023-04-06T08:32:34;7.38;;;4.35;;
73954;SDS011;62306;52.516;13.290;2023-04-06T08:35:02;8.15;;;4.10;;
73954;SDS011;62306;52.516;13.290;2023-04-06T08:37:29;11.10;;;4.22;;
73954;SDS011;62306;52.516;13.290;2023-04-06T08:39:57;8.57;;;4.68;;
73954;SDS011;62306;52.516;13.290;2023-04-06T08:42:25;5.10;;;3.22;;
73954;SDS011;62306;52.516;13.290;2023-04-06T08:44:54;6.38;;;4.00;;
73954;SDS011;62306;52.516;13.290;2023-04-06T08:47:22;9.82;;;4.40;;
73954;SDS011;62306;52.516;13.290;2023-04-06T08:49:49;7.75;;;3.90;;
73954;SDS011;62306;52.516;13.290;2023-04-06T08:52:18;8.45;;;3.53;;
73954;SDS011;62306;52.516;13.290;2023-04-06T08:54:45;7.50;;;3.90;;
73954;SDS011;62306;52.516;13.290;2023-04-06T08:57:13;7.50;;;4.43;;
73954;SDS011;62306;52.516;13.290;2023-04-06T08:59:42;5.30;;;3.47;;
73954;SDS011;62306;52.516;13.290;2023-04-06T09:02:11;8.40;;;3.40;;
73954;SDS011;62306;52.516;13.290;2023-04-06T09:04:43;6.53;;;3.33;;
73954;SDS011;62306;52.516;13.290;2023-04-06T09:07:12;6.88;;;3.55;;
73954;SDS011;62306;52.516;13.290;2023-04-06T09:09:40;4.40;;;3.13;;
73954;SDS011;62306;52.516;13.290;2023-04-06T09:12:21;5.80;;;3.35;;
73954;SDS011;62306;52.516;13.290;2023-04-06T09:14:49;7.20;;;3.88;;
73954;SDS011;62306;52.516;13.290;2023-04-06T09:17:20;10.85;;;3.58;;
73954;SDS011;62306;52.516;13.290;2023-04-06T09:19:47;9.35;;;3.97;;
73954;SDS011;62306;52.516;13.290;2023-04-06T09:22:15;6.57;;;3.08;;
73954;SDS011;62306;52.516;13.290;2023-04-06T09:24:45;9.52;;;3.97;;
73954;SDS011;62306;52.516;13.290;2023-04-06T09:27:13;7.65;;;3.20;;
73954;SDS011;62306;52.516;13.290;2023-04-06T09:29:41;6.60;;;4.30;;
73954;SDS011;62306;52.516;13.290;2023-04-06T09:32:09;9.25;;;3.83;;
73954;SDS011;62306;52.516;13.290;2023-04-06T09:34:41;12.77;;;3.38;;
73954;SDS011;62306;52.516;13.290;2023-04-06T09:37:13;7.53;;;3.35;;
73954;SDS011;62306;52.516;13.290;2023-04-06T09:39:41;12.48;;;3.22;;
73954;SDS011;62306;52.516;13.290;2023-04-06T09:42:10;4.95;;;2.72;;
73954;SDS011;62306;52.516;13.290;2023-04-06T09:44:49;4.60;;;3.00;;
73954;SDS011;62306;52.516;13.290;2023-04-06T09:47:16;3.38;;;2.20;;
73954;SDS011;62306;52.516;13.290;2023-04-06T09:49:44;4.28;;;3.33;;
73954;SDS011;62306;52.516;13.290;2023-04-06T09:52:13;4.45;;;3.00;;
73954;SDS011;62306;52.516;13.290;2023-04-06T09:54:42;6.50;;;2.78;;
73954;SDS011;62306;52.516;13.290;2023-04-06T09:57:13;8.15;;;3.28;;
73954;SDS011;62306;52.516;13.290;2023-04-06T09:59:50;4.38;;;3.05;;
73954;SDS011;62306;52.516;13.290;2023-04-06T10:02:23;4.95;;;3.05;;
73954;SDS011;62306;52.516;13.290;2023-04-06T10:04:56;5.63;;;3.40;;
73954;SDS011;62306;52.516;13.290;2023-04-06T10:07:28;5.93;;;2.65;;
73954;SDS011;62306;52.516;13.290;2023-04-06T10:09:56;6.57;;;2.60;;
73954;SDS011;62306;52.516;13.290;2023-04-06T10:12:27;4.07;;;2.60;;
73954;SDS011;62306;52.516;13.290;2023-04-06T10:14:54;5.63;;;2.90;;
73954;SDS011;62306;52.516;13.290;2023-04-06T10:17:22;4.90;;;2.75;;
73954;SDS011;62306;52.516;13.290;2023-04-06T10:19:52;4.22;;;2.88;;
73954;SDS011;62306;52.516;13.290;2023-04-06T10:22:22;8.60;;;3.67;;
73954;SDS011;62306;52.516;13.290;2023-04-06T10:24:55;6.05;;;3.25;;
73954;SDS011;62306;52.516;13.290;2023-04-06T10:27:30;5.80;;;2.80;;
73954;SDS011;62306;52.516;13.290;2023-04-06T10:30:01;5.00;;;2.80;;
73954;SDS011;62306;52.516;13.290;2023-04-06T10:32:33;7.25;;;3.40;;
73954;SDS011;62306;52.516;13.290;2023-04-06T10:35:05;5.43;;;2.65;;
73954;SDS011;62306;52.516;13.290;2023-04-06T10:37:45;4.68;;;3.20;;
73954;SDS011;62306;52.516;13.290;2023-04-06T10:40:21;7.32;;;3.65;;
73954;SDS011;62306;52.516;13.290;2023-04-06T10:42:52;4.05;;;2.85;;
73954;SDS011;62306;52.516;13.290;2023-04-06T10:45:20;4.13;;;2.30;;
73954;SDS011;62306;52.516;13.290;2023-04-06T10:47:49;3.33;;;2.63;;
73954;SDS011;62306;52.516;13.290;2023-04-06T10:50:18;4.47;;;2.83;;
73954;SDS011;62306;52.516;13.290;2023-04-06T10:52:45;8.38;;;3.10;;
73954;SDS011;62306;52.516;13.290;2023-04-06T10:55:13;4.22;;;2.92;;
73954;SDS011;62306;52.516;13.290;2023-04-06T10:57:41;5.40;;;3.00;;
73954;SDS011;62306;52.516;13.290;2023-04-06T11:00:11;8.75;;;3.60;;
73954;SDS011;62306;52.516;13.290;2023-04-06T11:02:39;5.32;;;3.35;;
73954;SDS011;62306;52.516;13.290;2023-04-06T11:07:37;6.05;;;2.90;;
73954;SDS011;62306;52.516;13.290;2023-04-06T11:10:06;4.85;;;3.40;;
73954;SDS011;62306;52.516;13.290;2023-04-06T11:12:34;3.83;;;2.85;;
73954;SDS011;62306;52.516;13.290;2023-04-06T11:15:02;4.82;;;3.05;;
73954;SDS011;62306;52.516;13.290;2023-04-06T11:17:33;5.97;;;2.90;;
73954;SDS011;62306;52.516;13.290;2023-04-06T11:20:01;5.68;;;3.28;;
73954;SDS011;62306;52.516;13.290;2023-04-06T11:22:29;7.78;;;3.28;;
73954;SDS011;62306;52.516;13.290;2023-04-06T11:25:04;2.92;;;2.63;;
73954;SDS011;62306;52.516;13.290;2023-04-06T11:27:32;7.85;;;2.95;;
73954;SDS011;62306;52.516;13.290;2023-04-06T11:29:59;4.55;;;3.42;;
73954;SDS011;62306;52.516;13.290;2023-04-06T11:32:27;4.50;;;2.90;;
73954;SDS011;62306;52.516;13.290;2023-04-06T11:34:57;4.22;;;3.05;;
73954;SDS011;62306;52.516;13.290;2023-04-06T11:37:25;9.13;;;4.35;;
73954;SDS011;62306;52.516;13.290;2023-04-06T11:39:54;5.47;;;3.47;;
73954;SDS011;62306;52.516;13.290;2023-04-06T11:42:22;7.03;;;3.30;;
73954;SDS011;62306;52.516;13.290;2023-04-06T11:44:50;4.43;;;2.90;;
73954;SDS011;62306;52.516;13.290;2023-04-06T11:47:18;5.15;;;3.40;;
73954;SDS011;62306;52.516;13.290;2023-04-06T11:49:47;6.05;;;4.50;;
73954;SDS011;62306;52.516;13.290;2023-04-06T11:52:17;4.90;;;2.70;;
73954;SDS011;62306;52.516;13.290;2023-04-06T11:54:45;4.18;;;3.20;;
73954;SDS011;62306;52.516;13.290;2023-04-06T11:57:13;5.15;;;3.08;;
73954;SDS011;62306;52.516;13.290;2023-04-06T11:59:41;8.30;;;3.47;;
73954;SDS011;62306;52.516;13.290;2023-04-06T12:02:09;6.07;;;3.40;;
73954;SDS011;62306;52.516;13.290;2023-04-06T12:04:37;5.07;;;3.42;;
73954;SDS011;62306;52.516;13.290;2023-04-06T12:07:04;10.13;;;3.67;;
73954;SDS011;62306;52.516;13.290;2023-04-06T12:09:33;6.68;;;3.92;;
73954;SDS011;62306;52.516;13.290;2023-04-06T12:12:01;4.18;;;3.10;;
73954;SDS011;62306;52.516;13.290;2023-04-06T12:14:29;6.80;;;3.92;;
73954;SDS011;62306;52.516;13.290;2023-04-06T12:16:56;6.70;;;4.03;;
73954;SDS011;62306;52.516;13.290;2023-04-06T12:19:23;6.03;;;3.42;;
73954;SDS011;62306;52.516;13.290;2023-04-06T12:21:51;4.78;;;3.30;;
73954;SDS011;62306;52.516;13.290;2023-04-06T12:24:19;5.18;;;3.33;;
73954;SDS011;62306;52.516;13.290;2023-04-06T12:26:48;5.95;;;3.72;;
73954;SDS011;62306;52.516;13.290;2023-04-06T12:29:15;6.95;;;3.72;;
73954;SDS011;62306;52.516;13.290;2023-04-06T12:31:42;5.53;;;3.58;;
73954;SDS011;62306;52.516;13.290;2023-04-06T12:34:10;7.20;;;3.45;;
73954;SDS011;62306;52.516;13.290;2023-04-06T12:36:37;4.40;;;3.53;;
73954;SDS011;62306;52.516;13.290;2023-04-06T12:39:04;4.50;;;3.40;;
73954;SDS011;62306;52.516;13.290;2023-04-06T12:41:31;7.20;;;3.70;;
73954;SDS011;62306;52.516;13.290;2023-04-06T12:44:00;8.75;;;3.85;;
73954;SDS011;62306;52.516;13.290;2023-04-06T12:46:28;5.72;;;3.05;;
73954;SDS011;62306;52.516;13.290;2023-04-06T12:48:56;5.93;;;3.10;;
73954;SDS011;62306;52.516;13.290;2023-04-06T12:51:24;4.43;;;2.90;;
73954;SDS011;62306;52.516;13.290;2023-04-06T12:53:53;5.45;;;3.80;;
73954;SDS011;62306;52.516;13.290;2023-04-06T12:56:20;6.18;;;3.80;;
73954;SDS011;62306;52.516;13.290;2023-04-06T12:58:47;5.40;;;4.13;;
73954;SDS011;62306;52.516;13.290;2023-04-06T13:01:17;7.15;;;3.45;;
73954;SDS011;62306;52.516;13.290;2023-04-06T13:03:45;9.30;;;4.50;;
73954;SDS011;62306;52.516;13.290;2023-04-06T13:06:12;5.95;;;3.95;;
73954;SDS011;62306;52.516;13.290;2023-04-06T13:08:40;6.13;;;3.92;;
73954;SDS011;62306;52.516;13.290;2023-04-06T13:11:07;5.15;;;3.50;;
73954;SDS011;62306;52.516;13.290;2023-04-06T13:13:35;5.40;;;3.67;;
73954;SDS011;62306;52.516;13.290;2023-04-06T13:16:03;7.93;;;3.60;;
73954;SDS011;62306;52.516;13.290;2023-04-06T13:18:32;6.03;;;3.45;;
73954;SDS011;62306;52.516;13.290;2023-04-06T13:21:01;12.15;;;3.65;;
73954;SDS011;62306;52.516;13.290;2023-04-06T13:23:28;4.35;;;3.22;;
73954;SDS011;62306;52.516;13.290;2023-04-06T13:25:59;5.57;;;3.10;;
73954;SDS011;62306;52.516;13.290;2023-04-06T13:28:27;5.88;;;3.67;;
73954;SDS011;62306;52.516;13.290;2023-04-06T13:30:54;6.88;;;3.90;;
73954;SDS011;62306;52.516;13.290;2023-04-06T13:33:22;7.53;;;3.78;;
73954;SDS011;62306;52.516;13.290;2023-04-06T13:35:50;5.53;;;3.45;;
73954;SDS011;62306;52.516;13.290;2023-04-06T13:38:17;6.95;;;3.95;;
73954;SDS011;62306;52.516;13.290;2023-04-06T13:40:45;6.28;;;4.22;;
73954;SDS011;62306;52.516;13.290;2023-04-06T13:43:12;14.50;;;4.90;;
73954;SDS011;62306;52.516;13.290;2023-04-06T13:45:39;6.63;;;4.43;;
73954;SDS011;62306;52.516;13.290;2023-04-06T13:48:06;4.85;;;4.00;;
73954;SDS011;62306;52.516;13.290;2023-04-06T13:50:33;6.75;;;4.75;;
73954;SDS011;62306;52.516;13.290;2023-04-06T13:53:01;5.50;;;4.22;;
73954;SDS011;62306;52.516;13.290;2023-04-06T13:55:28;6.00;;;4.50;;
73954;SDS011;62306;52.516;13.290;2023-04-06T13:57:56;6.75;;;4.55;;
73954;SDS011;62306;52.516;13.290;2023-04-06T14:00:23;5.53;;;4.15;;
73954;SDS011;62306;52.516;13.290;2023-04-06T14:02:50;7.90;;;3.80;;
73954;SDS011;62306;52.516;13.290;2023-04-06T14:05:19;6.82;;;4.50;;
73954;SDS011;62306;52.516;13.290;2023-04-06T14:07:47;4.90;;;3.70;;
73954;SDS011;62306;52.516;13.290;2023-04-06T14:10:15;6.57;;;4.00;;
73954;SDS011;62306;52.516;13.290;2023-04-06T14:12:42;6.72;;;3.92;;
73954;SDS011;62306;52.516;13.290;2023-04-06T14:15:10;6.93;;;5.00;;
73954;SDS011;62306;52.516;13.290;2023-04-06T14:17:38;6.22;;;4.15;;
73954;SDS011;62306;52.516;13.290;2023-04-06T14:20:05;4.85;;;3.50;;
73954;SDS011;62306;52.516;13.290;2023-04-06T14:22:39;9.70;;;4.82;;
73954;SDS011;62306;52.516;13.290;2023-04-06T14:25:06;7.78;;;3.95;;
73954;SDS011;62306;52.516;13.290;2023-04-06T14:27:36;8.48;;;4.55;;
73954;SDS011;62306;52.516;13.290;2023-04-06T14:30:03;7.78;;;4.65;;
73954;SDS011;62306;52.516;13.290;2023-04-06T14:32:30;6.80;;;4.30;;
73954;SDS011;62306;52.516;13.290;2023-04-06T14:34:58;7.13;;;4.30;;